Time;durP1;ratioP1;P1;durP2;ratioP2;P2;SDS_P1;SDS_P2;PMS_P1;PMS_P2;Temp;Humidity;BMP_temperature;BMP_pressure;BME280_temperature;BME280_humidity;BME280_pressure;Samples;Min_cycle;Max_cycle;Signal;HPM_P1;HPM_P2
2022/05/25 00:02:17;;;;;;;22.20;20.00;;;;;;;17.93;75.54;99296.06;5027337;28;20073;-70
2022/05/25 00:04:44;;;;;;;25.42;19.92;;;;;;;17.86;75.93;99292.31;5013005;28;20034;-70
2022/05/25 00:07:11;;;;;;;24.15;20.52;;;;;;;17.82;76.11;99293.09;5013782;28;20389;-70
2022/05/25 00:09:37;;;;;;;22.27;19.90;;;;;;;17.78;76.46;99292.25;5010944;28;20057;-70
2022/05/25 00:12:04;;;;;;;23.90;21.38;;;;;;;17.42;78.07;99289.06;5023328;28;20017;-70
2022/05/25 00:14:29;;;;;;;26.92;24.40;;;;;;;17.04;80.19;99288.97;4993023;28;20467;-71
2022/05/25 00:16:55;;;;;;;26.60;23.80;;;;;;;17.04;80.37;99293.84;5018404;28;20033;-70
2022/05/25 00:22:04;;;;;;;25.17;22.50;;;;;;;17.25;79.51;99287.63;5017764;28;20037;-70
2022/05/25 00:24:30;;;;;;;27.75;22.50;;;;;;;17.15;80.18;99282.66;5017425;28;20021;-70
2022/05/25 00:26:55;;;;;;;24.67;22.17;;;;;;;17.21;79.85;99281.94;5032110;28;20101;-70
2022/05/25 00:29:21;;;;;;;25.13;22.60;;;;;;;17.18;80.54;99288.38;5030725;28;20017;-70
2022/05/25 00:31:47;;;;;;;27.83;23.98;;;;;;;17.25;80.59;99282.81;5030330;28;20040;-70
2022/05/25 00:34:13;;;;;;;27.35;24.00;;;;;;;17.16;80.96;99281.47;5032117;28;20021;-70
2022/05/25 00:36:38;;;;;;;29.13;26.13;;;;;;;17.12;81.52;99273.75;5032106;28;20767;-70
2022/05/25 00:39:05;;;;;;;27.55;24.65;;;;;;;17.18;81.98;99282.72;5019335;28;20116;-70
2022/05/25 00:41:31;;;;;;;26.67;23.90;;;;;;;17.27;81.41;99273.94;5031795;28;20083;-70
2022/05/25 00:43:58;;;;;;;26.13;22.77;;;;;;;17.71;79.67;99285.72;5031296;28;20021;-70
2022/05/25 00:46:26;;;;;;;24.75;22.15;;;;;;;17.85;78.73;99280.19;5013142;28;20026;-71
2022/05/25 00:49:03;;;;;;;22.67;20.38;;;;;;;17.97;78.37;99284.75;5012013;28;20032;-71
2022/05/25 00:51:43;;;;;;;24.13;21.83;;;;;;;17.96;78.09;99281.13;5012321;28;20030;-70
2022/05/25 00:54:13;;;;;;;22.60;20.35;;;;;;;18.25;76.82;99280.59;5027718;28;20033;-70
2022/05/25 00:56:43;;;;;;;21.70;19.08;;;;;;;18.44;75.71;99287.19;5011145;28;20030;-71
2022/05/25 00:59:14;;;;;;;22.27;18.35;;;;;;;18.63;74.95;99289.75;5012112;28;20108;-70
2022/05/25 01:01:40;;;;;;;24.05;19.42;;;;;;;18.76;74.08;99295.09;5016886;28;20051;-71
2022/05/25 01:04:06;;;;;;;25.80;19.98;;;;;;;18.77;74.49;99291.06;5030599;28;20041;-71
2022/05/25 01:06:31;;;;;;;22.13;19.90;;;;;;;18.82;74.01;99301.19;5029476;28;20036;-70
2022/05/25 01:09:06;;;;;;;21.73;19.50;;;;;;;18.85;74.30;99292.72;5030610;28;20033;-70
2022/05/25 01:11:52;;;;;;;21.88;19.67;;;;;;;18.97;73.78;99294.41;5014677;28;20040;-70
2022/05/25 01:14:23;;;;;;;22.02;19.75;;;;;;;19.06;73.40;99299.72;5009973;28;20030;-70
2022/05/25 01:17:14;;;;;;;22.42;20.42;;;;;;;19.13;72.41;99299.78;5011945;28;20105;-71
2022/05/25 01:19:43;;;;;;;21.80;19.70;;;;;;;19.10;73.13;99309.06;5011948;28;20169;-70
2022/05/25 01:22:36;;;;;;;22.25;20.10;;;;;;;19.08;72.93;99305.84;5010323;28;20037;-70
2022/05/25 01:25:39;;;;;;;22.42;20.42;;;;;;;19.02;73.42;99310.25;5012136;28;20038;-70
2022/05/25 01:28:33;;;;;;;24.13;21.63;;;;;;;19.01;73.02;99314.28;5011666;28;20037;-70
2022/05/25 01:31:06;;;;;;;24.30;21.95;;;;;;;19.01;72.92;99314.28;5010332;28;20088;-70
2022/05/25 01:33:45;;;;;;;23.35;20.83;;;;;;;18.99;72.81;99308.97;5008975;28;20026;-71
2022/05/25 01:36:33;;;;;;;24.15;21.95;;;;;;;19.01;72.81;99315.13;5010392;28;20029;-70
2022/05/25 01:39:06;;;;;;;23.80;21.50;;;;;;;19.00;73.14;99316.28;5010467;28;20030;-70
2022/05/25 01:41:56;;;;;;;22.42;20.35;;;;;;;18.97;73.20;99313.44;5011516;28;20032;-71
2022/05/25 01:44:39;;;;;;;23.92;21.60;;;;;;;18.93;73.25;99305.69;5011240;28;20180;-71
2022/05/25 01:47:09;;;;;;;22.55;20.35;;;;;;;19.14;72.47;99324.06;5013967;28;20061;-70
2022/05/25 01:50:01;;;;;;;24.15;21.70;;;;;;;19.20;72.23;99310.34;5025640;28;20128;-70
2022/05/25 01:52:31;;;;;;;25.20;23.20;;;;;;;19.22;71.88;99314.41;5029229;28;20033;-70
2022/05/25 01:54:58;;;;;;;;;;;;;;;19.25;72.14;99323.31;5034920;28;20025;-71
2022/05/25 01:57:29;;;;;;;26.67;24.15;;;;;;;19.16;72.32;99326.53;5034968;28;19962;-70
2022/05/25 01:59:54;;;;;;;28.13;25.25;;;;;;;19.17;72.15;99323.28;5033727;28;20056;-70
2022/05/25 02:05:09;;;;;;;26.25;23.90;;;;;;;19.24;71.81;99327.38;5015234;28;20033;-70
2022/05/25 02:07:59;;;;;;;27.05;24.50;;;;;;;19.16;72.77;99341.50;5015001;28;20100;-71
2022/05/25 02:10:40;;;;;;;31.48;28.10;;;;;;;19.06;73.87;99350.75;5011712;28;20029;-71
2022/05/25 02:13:11;;;;;;;28.50;26.05;;;;;;;19.19;73.06;99339.88;5029975;28;20060;-70
2022/05/25 02:15:58;;;;;;;27.25;24.75;;;;;;;19.19;72.71;99346.38;5014861;28;20084;-70
2022/05/25 02:18:41;;;;;;;29.40;26.63;;;;;;;19.24;72.49;99350.84;5028919;28;20056;-70
2022/05/25 02:21:31;;;;;;;27.80;25.23;;;;;;;19.17;72.46;99348.78;5018256;28;20121;-70
2022/05/25 02:24:33;;;;;;;27.15;24.52;;;;;;;19.00;73.17;99350.31;5029346;28;20120;-70
2022/05/25 02:27:09;;;;;;;26.52;24.30;;;;;;;18.97;73.49;99358.78;5031980;28;20034;-70
2022/05/25 02:29:40;;;;;;;29.50;25.48;;;;;;;18.80;74.80;99355.41;5034200;28;20028;-70
2022/05/25 02:32:14;;;;;;;29.65;25.80;;;;;;;18.85;74.45;99357.88;5034432;28;20036;-70
2022/05/25 02:34:42;;;;;;;27.23;24.73;;;;;;;18.86;74.26;99362.34;5034232;28;20090;-70
2022/05/25 02:37:09;;;;;;;29.52;26.30;;;;;;;18.80;74.79;99367.56;5026379;28;20385;-70
2022/05/25 02:39:35;;;;;;;27.90;25.02;;;;;;;18.74;74.50;99363.47;5014315;28;20108;-70
2022/05/25 02:42:00;;;;;;;29.38;26.63;;;;;;;18.74;75.01;99379.66;5014818;28;20536;-71
2022/05/25 02:44:26;;;;;;;31.58;28.67;;;;;;;18.84;74.36;99373.28;5014928;28;20413;-71
2022/05/25 02:46:52;;;;;;;29.80;26.90;;;;;;;18.77;74.37;99373.19;5012950;28;20018;-71
2022/05/25 02:49:18;;;;;;;31.20;28.30;;;;;;;18.51;76.33;99372.19;5014164;28;20036;-70
2022/05/25 02:51:45;;;;;;;31.40;28.20;;;;;;;18.61;76.07;99376.31;5014095;28;20080;-70
2022/05/25 02:54:11;;;;;;;30.90;27.80;;;;;;;18.63;75.42;99376.72;5022619;28;20033;-70
2022/05/25 02:56:37;;;;;;;33.85;28.52;;;;;;;18.75;75.66;99384.13;5013719;28;20030;-70
2022/05/25 02:59:03;;;;;;;36.20;32.08;;;;;;;18.73;76.08;99384.50;5029163;28;20048;-70
2022/05/25 03:01:29;;;;;;;32.13;28.92;;;;;;;18.77;75.45;99381.69;5025376;28;20056;-70
2022/05/25 03:03:55;;;;;;;34.65;31.05;;;;;;;18.63;76.09;99380.41;5033744;28;20029;-71
2022/05/25 03:06:21;;;;;;;34.80;31.25;;;;;;;18.66;76.30;99376.75;5033857;28;20152;-70
2022/05/25 03:08:46;;;;;;;33.88;30.48;;;;;;;18.66;75.50;99381.63;5033606;28;20064;-70
2022/05/25 03:11:12;;;;;;;38.20;31.60;;;;;;;18.63;76.08;99385.22;5026110;28;20103;-71
2022/05/25 03:13:38;;;;;;;34.33;30.70;;;;;;;18.46;76.81;99392.38;5013801;28;20172;-70
2022/05/25 03:16:07;;;;;;;37.70;30.80;;;;;;;18.50;76.50;99398.91;5023736;28;20030;-70
2022/05/25 03:18:34;;;;;;;37.23;31.37;;;;;;;18.48;76.59;99401.31;5032851;28;20437;-71
2022/05/25 03:20:59;;;;;;;32.83;28.98;;;;;;;18.51;76.49;99406.19;5022509;28;20408;-70
2022/05/25 03:23:25;;;;;;;41.67;29.83;;;;;;;18.28;77.67;99407.19;5013528;28;20101;-70
2022/05/25 03:25:50;;;;;;;32.40;28.23;;;;;;;18.39;76.62;99398.78;5013495;28;20439;-70
2022/05/25 03:28:16;;;;;;;37.97;29.83;;;;;;;18.40;77.23;99410.94;5013389;28;20053;-70
2022/05/25 03:30:43;;;;;;;39.20;32.15;;;;;;;18.38;77.43;99412.13;5012090;28;20033;-70
2022/05/25 03:33:09;;;;;;;38.15;29.00;;;;;;;18.48;76.33;99418.28;5014215;28;20017;-70
2022/05/25 03:35:35;;;;;;;40.33;29.92;;;;;;;18.46;76.67;99412.19;5020590;28;20036;-70
2022/05/25 03:38:02;;;;;;;40.38;28.42;;;;;;;18.46;76.58;99415.03;5019207;28;20088;-70
2022/05/25 03:40:28;;;;;;;41.80;30.77;;;;;;;18.46;76.30;99423.50;5026490;28;20028;-70
2022/05/25 03:42:53;;;;;;;45.83;30.08;;;;;;;18.41;76.89;99415.38;5013825;28;20021;-70
2022/05/25 03:45:19;;;;;;;42.83;31.02;;;;;;;18.57;76.36;99424.44;5014479;28;20030;-70
2022/05/25 03:47:45;;;;;;;48.30;31.08;;;;;;;18.60;76.39;99420.00;5013120;28;20492;-70
2022/05/25 03:50:11;;;;;;;49.58;31.63;;;;;;;18.49;76.44;99428.41;5012597;28;20416;-71
2022/05/25 03:52:38;;;;;;;39.33;31.60;;;;;;;18.45;76.73;99436.03;5018267;28;20476;-70
2022/05/25 03:55:04;;;;;;;52.20;33.05;;;;;;;18.53;76.68;99420.75;5016135;28;20124;-71
2022/05/25 03:57:32;;;;;;;49.97;31.38;;;;;;;18.48;77.39;99432.47;5030695;28;20028;-70
2022/05/25 03:59:57;;;;;;;45.72;31.90;;;;;;;18.56;76.52;99441.81;5020279;28;20014;-70
2022/05/25 04:02:23;;;;;;;58.17;32.53;;;;;;;18.51;76.92;99443.78;5012636;28;20045;-70
2022/05/25 04:05:07;;;;;;;48.17;31.60;;;;;;;18.47;77.43;99439.31;5013722;28;20028;-70
2022/05/25 04:07:36;;;;;;;52.72;30.75;;;;;;;18.50;77.13;99444.19;5012137;28;20461;-70
2022/05/25 04:10:03;;;;;;;45.13;30.63;;;;;;;18.48;77.40;99441.75;5012657;28;20124;-70
2022/05/25 04:12:29;;;;;;;50.28;31.42;;;;;;;18.56;76.44;99453.97;5020193;28;20079;-72
2022/05/25 04:14:55;;;;;;;48.05;29.35;;;;;;;18.54;76.82;99445.03;5024732;28;20438;-75
2022/05/25 04:17:20;;;;;;;35.50;27.92;;;;;;;18.44;77.01;99448.56;5031980;28;20037;-72
2022/05/25 04:19:46;;;;;;;36.15;26.17;;;;;;;18.37;77.00;99440.81;5018734;28;20041;-72
2022/05/25 04:22:11;;;;;;;34.92;23.17;;;;;;;18.37;76.69;99458.66;5003812;28;20030;-72
2022/05/25 04:24:37;;;;;;;39.63;24.02;;;;;;;18.31;77.10;99453.72;5032983;28;20404;-70
2022/05/25 04:27:02;;;;;;;39.95;25.60;;;;;;;18.34;77.15;99459.44;5015259;28;20026;-71
2022/05/25 04:29:28;;;;;;;42.65;24.58;;;;;;;18.31;77.10;99453.72;5019193;28;20029;-71
2022/05/25 04:31:53;;;;;;;45.13;26.25;;;;;;;18.26;77.01;99457.72;5017608;28;20022;-71
2022/05/25 04:34:19;;;;;;;51.17;27.75;;;;;;;18.14;77.78;99446.66;5015036;28;20022;-71
2022/05/25 04:36:44;;;;;;;55.65;28.08;;;;;;;18.16;77.88;99450.75;5012106;28;20485;-71
2022/05/25 04:39:10;;;;;;;63.53;30.52;;;;;;;18.18;77.67;99453.16;5012116;28;20029;-70
2022/05/25 04:41:36;;;;;;;62.55;33.10;;;;;;;18.30;77.90;99454.94;5010867;28;20025;-69
2022/05/25 04:44:04;;;;;;;73.15;33.65;;;;;;;18.21;78.02;99461.72;5006599;28;20026;-69
2022/05/25 04:46:30;;;;;;;50.47;31.55;;;;;;;18.23;78.04;99461.34;4992394;28;20030;-69
2022/05/25 04:48:57;;;;;;;55.90;33.35;;;;;;;18.21;78.05;99466.53;5010967;28;20025;-69
2022/05/25 04:51:23;;;;;;;66.97;34.13;;;;;;;18.19;78.48;99471.78;5010098;28;20022;-69
2022/05/25 04:53:49;;;;;;;67.13;30.85;;;;;;;18.16;78.84;99467.72;5013563;28;20510;-69
2022/05/25 04:58:58;;;;;;;62.72;30.95;;;;;;;18.07;78.81;99482.16;4997135;28;20120;-69
2022/05/25 05:01:24;;;;;;;62.97;33.38;;;;;;;17.99;79.75;99490.91;5005915;28;20073;-69
2022/05/25 05:03:49;;;;;;;64.38;32.97;;;;;;;17.91;79.85;99484.38;5011789;28;20033;-69
2022/05/25 05:06:15;;;;;;;70.80;33.33;;;;;;;18.03;79.96;99491.81;5024929;28;20120;-69
2022/05/25 05:08:40;;;;;;;66.70;32.42;;;;;;;18.06;79.89;99480.53;5026118;28;20491;-69
2022/05/25 05:11:12;;;;;;;66.63;31.30;;;;;;;18.00;80.13;99484.06;5014190;28;20033;-70
2022/05/25 05:13:39;;;;;;;60.97;29.70;;;;;;;17.95;79.73;99483.22;5009843;28;20064;-69
2022/05/25 05:16:07;;;;;;;71.60;32.97;;;;;;;18.11;79.06;99493.53;5011549;28;20428;-67
2022/05/25 05:18:33;;;;;;;63.58;29.92;;;;;;;18.34;77.87;99498.25;5001748;28;20385;-67
2022/05/25 05:20:59;;;;;;;65.00;30.38;;;;;;;18.12;79.72;99495.16;5015586;28;20029;-68
2022/05/25 05:23:25;;;;;;;61.65;32.33;;;;;;;18.17;79.32;99494.81;5021897;28;20476;-68
2022/05/25 05:25:50;;;;;;;72.10;31.05;;;;;;;18.26;78.09;99500.19;5005952;28;20067;-68
2022/05/25 05:28:23;;;;;;;64.25;31.08;;;;;;;18.30;78.76;99498.19;5012366;28;20037;-68
2022/05/25 05:30:52;;;;;;;73.68;31.42;;;;;;;18.20;79.38;99493.22;5015728;28;20033;-69
2022/05/25 05:33:17;;;;;;;62.67;31.02;;;;;;;18.22;79.52;99500.13;5026387;28;20443;-69
2022/05/25 05:35:49;;;;;;;73.00;33.72;;;;;;;18.30;79.10;99506.69;5021180;28;20034;-69
2022/05/25 05:38:16;;;;;;;77.50;32.03;;;;;;;18.28;78.61;99496.94;5001572;28;20057;-69
2022/05/25 05:40:42;;;;;;;70.82;31.38;;;;;;;18.10;79.78;99506.06;4994538;28;20023;-69
2022/05/25 05:43:09;;;;;;;65.38;29.58;;;;;;;18.04;79.97;99505.56;5005887;28;20041;-69
2022/05/25 05:45:38;;;;;;;64.30;29.00;;;;;;;18.15;79.29;99505.69;5012159;28;20084;-69
2022/05/25 05:48:14;;;;;;;61.83;28.27;;;;;;;18.19;79.01;99505.75;5013692;28;20029;-69
2022/05/25 05:50:41;;;;;;;54.33;27.65;;;;;;;18.15;78.45;99510.56;4999479;28;20038;-69
2022/05/25 05:53:10;;;;;;;57.53;28.17;;;;;;;18.15;78.51;99513.38;5007212;28;20032;-72
2022/05/25 05:55:36;;;;;;;54.97;26.65;;;;;;;18.02;78.88;99510.78;5004414;28;20018;-70
2022/05/25 05:58:03;;;;;;;47.85;25.65;;;;;;;18.15;78.60;99513.38;5012544;28;20029;-70
2022/05/25 06:00:29;;;;;;;58.00;27.45;;;;;;;18.16;77.92;99509.34;5008360;28;20032;-71
2022/05/25 06:02:54;;;;;;;49.88;25.50;;;;;;;17.94;78.82;99509.88;5010992;28;20121;-71
2022/05/25 06:05:20;;;;;;;50.13;24.52;;;;;;;18.02;78.63;99510.78;5014067;28;20594;-69
2022/05/25 06:07:45;;;;;;;50.67;24.15;;;;;;;18.19;77.88;99520.72;5011952;28;20492;-69
2022/05/25 06:10:11;;;;;;;59.03;26.27;;;;;;;18.13;77.90;99515.78;5014695;28;20129;-70
2022/05/25 06:12:37;;;;;;;62.15;26.45;;;;;;;18.02;78.71;99515.63;4996560;28;20496;-70
2022/05/25 06:19:25;;;;;;;52.67;26.75;;;;;;;18.13;78.16;99513.75;4995638;28;20057;-70
2022/05/25 06:20:34;;;;;;;74.85;28.80;;;;;;;18.22;77.70;99527.59;5002696;28;20554;-69
2022/05/25 06:23:00;;;;;;;45.70;23.55;;;;;;;18.31;77.08;99527.34;5001471;28;20061;-70
2022/05/25 06:25:26;;;;;;;52.17;24.50;;;;;;;18.36;76.97;99530.63;4997007;28;20128;-69
2022/05/25 06:27:51;;;;;;;65.75;24.92;;;;;;;18.32;76.84;99524.09;4999196;28;20473;-70
2022/05/25 06:30:17;;;;;;;60.97;25.58;;;;;;;18.34;76.57;99543.53;5024224;28;20518;-72
2022/05/25 06:32:43;;;;;;;56.42;24.63;;;;;;;18.40;77.11;99541.19;5011869;28;20029;-71
2022/05/25 06:35:10;;;;;;;77.28;27.58;;;;;;;18.54;76.40;99534.88;4999946;28;20054;-70
2022/05/25 06:37:35;;;;;;;62.28;26.90;;;;;;;18.57;75.80;99528.41;4998159;28;20022;-71
2022/05/25 06:40:02;;;;;;;67.57;28.95;;;;;;;18.62;75.83;99537.38;5001384;28;20513;-72
2022/05/25 06:42:27;;;;;;;68.15;31.38;;;;;;;18.43;76.85;99520.56;5001830;28;20385;-71
2022/05/25 06:44:53;;;;;;;68.80;31.08;;;;;;;18.54;76.65;99540.53;5009229;28;20060;-71
2022/05/25 06:47:19;;;;;;;70.10;31.38;;;;;;;18.54;76.93;99546.19;4994305;28;20030;-70
2022/05/25 06:49:45;;;;;;;60.95;32.30;;;;;;;18.52;76.95;99549.41;5013494;28;20030;-70
2022/05/25 06:52:12;;;;;;;72.70;32.53;;;;;;;18.72;75.68;99549.22;5005163;28;20017;-72
2022/05/25 06:54:38;;;;;;;73.20;32.38;;;;;;;18.62;76.17;99545.06;5005143;28;20546;-72
2022/05/25 06:57:04;;;;;;;70.15;31.63;;;;;;;18.74;75.91;99543.97;5004392;28;20030;-74
2022/05/25 06:59:29;;;;;;;74.82;32.63;;;;;;;18.79;75.93;99549.28;5003776;28;20033;-71
2022/05/25 07:01:55;;;;;;;66.05;30.63;;;;;;;18.94;74.96;99534.06;5002530;28;20043;-70
2022/05/25 07:04:21;;;;;;;70.40;32.20;;;;;;;18.99;75.21;99543.41;5001920;28;20113;-70
2022/05/25 07:06:47;;;;;;;68.85;31.52;;;;;;;18.82;75.66;99545.66;4996387;28;20026;-70
2022/05/25 07:09:13;;;;;;;66.53;28.70;;;;;;;18.97;75.35;99549.44;5001432;28;20535;-70
2022/05/25 07:11:39;;;;;;;69.60;33.45;;;;;;;19.07;74.54;99562.13;5012215;28;20163;-68
2022/05/25 07:14:05;;;;;;;70.57;30.40;;;;;;;19.12;74.60;99564.59;5008118;28;20389;-70
2022/05/25 07:16:34;;;;;;;72.43;33.35;;;;;;;19.16;73.73;99565.44;5001847;28;20109;-70
2022/05/25 07:19:00;;;;;;;59.95;30.40;;;;;;;19.15;74.02;99563.00;4997896;28;20073;-72
2022/05/25 07:21:28;;;;;;;58.63;29.17;;;;;;;19.13;74.36;99562.59;4993787;28;20054;-71
2022/05/25 07:23:56;;;;;;;59.42;30.75;;;;;;;19.17;73.93;99566.25;5025691;28;20034;-73
2022/05/25 07:26:23;;;;;;;62.42;30.52;;;;;;;19.19;73.93;99561.84;5002704;28;20069;-74
2022/05/25 07:28:51;;;;;;;58.35;30.58;;;;;;;19.30;73.81;99563.94;5010396;28;20069;-72
2022/05/25 07:31:25;;;;;;;64.55;31.30;;;;;;;19.41;73.38;99564.03;5013361;28;20026;-73
2022/05/25 07:34:01;;;;;;;48.22;27.83;;;;;;;19.41;73.47;99567.66;5004295;28;20026;-67
2022/05/25 07:36:28;;;;;;;56.05;27.02;;;;;;;19.34;72.90;99567.63;5004975;28;20105;-69
2022/05/25 07:38:56;;;;;;;42.78;24.25;;;;;;;19.41;74.12;99575.38;5026287;28;20040;-71
2022/05/25 07:41:22;;;;;;;46.75;24.35;;;;;;;19.40;73.49;99573.75;5019546;28;20451;-71
2022/05/25 07:43:53;;;;;;;44.03;24.13;;;;;;;19.47;73.82;99570.94;5010168;28;20084;-70
2022/05/25 07:46:20;;;;;;;47.75;24.60;;;;;;;19.52;73.52;99572.59;4993500;28;20125;-71
2022/05/25 07:48:45;;;;;;;49.60;26.48;;;;;;;19.23;74.01;99573.19;4999297;28;20062;-71
2022/05/25 07:51:11;;;;;;;53.67;27.02;;;;;;;19.52;73.57;99569.78;5006695;28;20057;-71
2022/05/25 07:53:55;;;;;;;46.95;27.50;;;;;;;19.68;73.45;99570.31;5013182;28;20030;-72
2022/05/25 07:56:22;;;;;;;49.50;28.17;;;;;;;19.37;73.23;99572.50;4999816;28;20041;-70
2022/05/25 07:58:48;;;;;;;48.30;25.77;;;;;;;19.69;72.92;99571.09;4990253;28;20022;-70
2022/05/25 08:01:17;;;;;;;49.33;28.95;;;;;;;19.73;72.29;99569.09;4991931;28;20054;-70
2022/05/25 08:06:31;;;;;;;53.78;28.67;;;;;;;20.08;71.43;99579.06;5001961;28;20052;-71
2022/05/25 08:08:57;;;;;;;50.38;28.10;;;;;;;20.11;70.26;99583.16;5005664;28;20033;-70
2022/05/25 08:11:24;;;;;;;47.80;28.25;;;;;;;19.87;71.50;99569.22;5026813;28;20057;-71
2022/05/25 08:13:55;;;;;;;49.47;30.15;;;;;;;20.02;71.38;99586.34;5010343;28;20053;-70
2022/05/25 08:16:20;;;;;;;45.35;28.85;;;;;;;20.12;71.18;99582.75;5011001;28;20029;-71
2022/05/25 08:18:46;;;;;;;51.80;28.73;;;;;;;20.20;70.39;99592.13;5010264;28;20030;-71
2022/05/25 08:21:11;;;;;;;47.72;28.75;;;;;;;19.72;71.80;99585.31;5010661;28;20496;-71
2022/05/25 08:23:37;;;;;;;48.78;29.15;;;;;;;20.15;71.39;99589.66;5009739;28;20081;-71
2022/05/25 08:26:02;;;;;;;42.95;26.67;;;;;;;20.38;70.75;99597.06;4992716;28;20026;-71
2022/05/25 08:28:28;;;;;;;46.42;27.80;;;;;;;20.40;70.13;99597.50;5000641;28;20092;-71
2022/05/25 08:30:54;;;;;;;40.92;26.05;;;;;;;20.42;69.42;99595.84;5012318;28;20026;-71
2022/05/25 08:33:22;;;;;;;45.83;28.65;;;;;;;20.52;69.04;99608.50;4994413;28;20089;-71
2022/05/25 08:35:48;;;;;;;47.03;27.20;;;;;;;20.61;69.03;99614.59;4991107;28;20045;-71
2022/05/25 08:38:14;;;;;;;46.03;25.73;;;;;;;20.59;68.38;99608.50;4992519;28;20041;-71
2022/05/25 08:40:40;;;;;;;41.10;24.63;;;;;;;20.74;68.22;99605.69;4992935;28;20018;-71
2022/05/25 08:43:14;;;;;;;46.78;26.50;;;;;;;20.68;68.18;99598.81;5004428;28;20500;-71
2022/05/25 08:45:46;;;;;;;41.28;24.40;;;;;;;20.61;68.00;99605.28;5007357;28;20080;-71
2022/05/25 08:48:15;;;;;;;37.97;24.45;;;;;;;20.74;67.38;99602.88;4999893;28;20034;-71
2022/05/25 08:50:43;;;;;;;36.67;23.40;;;;;;;20.76;67.23;99611.81;5001138;28;20026;-71
2022/05/25 08:53:11;;;;;;;43.03;24.50;;;;;;;20.84;67.87;99601.31;5008249;28;20084;-71
2022/05/25 08:55:56;;;;;;;45.42;23.20;;;;;;;20.81;67.58;99619.97;5023326;28;20120;-71
2022/05/25 08:58:29;;;;;;;45.83;25.90;;;;;;;20.69;67.69;99611.78;4999953;28;20499;-71
2022/05/25 09:00:57;;;;;;;38.78;24.52;;;;;;;20.64;67.46;99612.19;5006136;28;20026;-71
2022/05/25 09:03:54;;;;;;;41.33;24.17;;;;;;;20.75;68.03;99618.69;5011769;28;20042;-71
2022/05/25 09:06:35;;;;;;;43.92;23.83;;;;;;;20.79;67.27;99613.84;4997071;28;20488;-71
2022/05/25 09:09:10;;;;;;;36.88;21.95;;;;;;;20.85;67.10;99617.16;5005964;28;20057;-71
2022/05/25 09:12:09;;;;;;;36.30;21.98;;;;;;;20.98;66.47;99607.03;5011704;28;20362;-71
2022/05/25 09:14:49;;;;;;;36.47;23.65;;;;;;;20.96;66.56;99600.09;5007220;28;20476;-72
2022/05/25 09:17:26;;;;;;;38.13;23.13;;;;;;;21.10;66.10;99602.16;5007361;28;20057;-72
2022/05/25 09:19:52;;;;;;;45.95;23.90;;;;;;;21.17;65.57;99605.00;4994311;28;20054;-71
2022/05/25 09:22:22;;;;;;;33.08;23.80;;;;;;;21.43;63.77;99615.19;4997461;28;20358;-71
2022/05/25 09:24:52;;;;;;;62.92;26.00;;;;;;;21.51;63.60;99610.31;4996705;28;20076;-71
2022/05/25 09:27:24;;;;;;;63.65;25.00;;;;;;;21.35;64.33;99613.56;4997788;28;20018;-72
2022/05/25 09:29:53;;;;;;;41.65;24.50;;;;;;;21.54;63.81;99603.81;4992750;28;20038;-70
2022/05/25 09:32:27;;;;;;;41.13;24.88;;;;;;;21.08;64.79;99608.25;4992392;28;20026;-71
2022/05/25 09:35:06;;;;;;;32.83;21.95;;;;;;;21.46;64.34;99605.84;5004838;28;20030;-72
2022/05/25 09:37:53;;;;;;;35.90;22.98;;;;;;;21.55;63.71;99610.31;5003318;28;20036;-70
2022/05/25 09:40:49;;;;;;;38.97;23.50;;;;;;;21.57;63.96;99608.69;4991673;28;20036;-73
2022/05/25 09:43:23;;;;;;;40.47;23.30;;;;;;;21.61;63.72;99605.84;5004352;28;20038;-73
2022/05/25 09:45:51;;;;;;;47.28;26.73;;;;;;;21.43;63.33;99603.81;5008174;28;20025;-72
2022/05/25 09:48:23;;;;;;;52.67;26.88;;;;;;;21.69;63.28;99598.16;5019571;28;20488;-70
2022/05/25 09:50:51;;;;;;;41.97;25.23;;;;;;;21.74;62.43;99595.69;5000217;28;20037;-69
2022/05/25 09:53:20;;;;;;;40.75;25.60;;;;;;;21.80;61.85;99600.97;5002601;28;20034;-71
2022/05/25 09:56:21;;;;;;;45.78;27.95;;;;;;;21.95;61.96;99596.84;5005928;28;20101;-71
2022/05/25 09:58:53;;;;;;;37.30;24.08;;;;;;;21.96;61.70;99589.16;5035698;28;20060;-69
2022/05/25 10:01:28;;;;;;;39.65;24.88;;;;;;;22.00;61.75;99584.25;5012812;28;20489;-69
2022/05/25 10:03:54;;;;;;;42.45;26.40;;;;;;;21.99;61.57;99576.94;4989405;28;20077;-71
2022/05/25 10:06:31;;;;;;;46.70;26.15;;;;;;;22.10;61.30;99582.59;4999128;28;20401;-72
2022/05/25 10:09:17;;;;;;;47.53;27.50;;;;;;;22.02;61.69;99584.63;5006924;28;20172;-70
2022/05/25 10:11:51;;;;;;;39.17;26.75;;;;;;;21.79;61.17;99585.13;5013053;28;20034;-70
2022/05/25 10:14:27;;;;;;;46.03;30.48;;;;;;;21.83;61.29;99583.06;5010513;28;20038;-69
2022/05/25 10:16:56;;;;;;;52.13;32.42;;;;;;;21.60;61.41;99568.03;5009629;28;20061;-71
2022/05/25 10:19:22;;;;;;;46.28;27.60;;;;;;;21.26;62.98;99584.72;5007230;28;20025;-69
2022/05/25 10:21:51;;;;;;;44.15;30.40;;;;;;;21.77;62.16;99588.34;5007339;28;20060;-70
2022/05/25 10:24:40;;;;;;;48.70;26.50;;;;;;;21.70;61.47;99589.19;5008514;28;20040;-70
2022/05/25 10:27:32;;;;;;;46.78;27.63;;;;;;;22.07;60.82;99583.41;5008469;28;20065;-73
2022/05/25 10:38:38;;;;;;;44.15;29.45;;;;;;;22.34;60.00;99574.38;5005266;28;20033;-72
2022/05/25 10:41:37;;;;;;;42.00;27.02;;;;;;;22.10;60.53;99574.84;5032472;28;20038;-72
2022/05/25 10:44:05;;;;;;;45.78;30.35;;;;;;;22.33;60.88;99572.75;5009636;28;20048;-73
2022/05/25 10:46:31;;;;;;;44.53;29.23;;;;;;;22.39;59.88;99586.16;4999746;28;20034;-72
2022/05/25 10:49:07;;;;;;;42.50;27.77;;;;;;;22.44;59.95;99582.88;5008177;28;20099;-72
2022/05/25 10:51:43;;;;;;;48.75;29.40;;;;;;;22.32;60.17;99576.81;5001464;28;20124;-72
2022/05/25 10:57:18;;;;;;;44.30;29.10;;;;;;;22.59;60.20;99562.88;5008655;28;20089;-71
2022/05/25 11:00:25;;;;;;;49.38;29.80;;;;;;;22.52;60.27;99569.44;5002459;28;20092;-71
2022/05/25 11:03:19;;;;;;;39.47;26.35;;;;;;;22.64;59.79;99571.00;5002096;28;20046;-71
2022/05/25 11:06:12;;;;;;;48.58;29.30;;;;;;;22.55;60.05;99573.50;4994884;28;20037;-71
2022/05/25 11:09:05;;;;;;;47.33;29.23;;;;;;;22.76;59.69;99578.25;5023122;28;20028;-72
2022/05/25 11:11:44;;;;;;;41.58;27.33;;;;;;;22.66;59.21;99573.44;5022885;28;20034;-71
2022/05/25 11:14:43;;;;;;;42.88;30.05;;;;;;;22.60;59.16;99575.09;4995224;28;20034;-72
2022/05/25 11:17:28;;;;;;;42.37;28.67;;;;;;;22.75;59.23;99564.44;5008233;28;20034;-71
2022/05/25 11:20:02;;;;;;;53.70;31.05;;;;;;;22.73;59.68;99562.00;5000426;28;20100;-71
2022/05/25 11:22:46;;;;;;;42.00;29.25;;;;;;;22.72;59.79;99564.03;5011644;28;20079;-71
2022/05/25 11:25:17;;;;;;;45.35;28.48;;;;;;;22.82;59.42;99555.81;5009631;28;20034;-71
2022/05/25 11:28:12;;;;;;;58.67;30.77;;;;;;;22.90;59.87;99559.44;4993959;28;20404;-69
2022/05/25 11:30:47;;;;;;;42.97;28.92;;;;;;;22.94;58.58;99545.97;5002310;28;20066;-70
2022/05/25 11:33:37;;;;;;;43.75;28.83;;;;;;;22.80;59.08;99541.97;4998561;28;20084;-73
2022/05/25 11:36:22;;;;;;;46.80;30.88;;;;;;;22.79;58.97;99537.50;4993621;28;20041;-72
2022/05/25 11:39:07;;;;;;;45.70;31.10;;;;;;;22.91;57.92;99538.25;5009608;28;20022;-73
2022/05/25 11:41:37;;;;;;;46.90;30.33;;;;;;;22.91;58.93;99549.66;5004228;28;20050;-71
2022/05/25 11:44:15;;;;;;;43.53;29.27;;;;;;;23.14;58.25;99555.59;5003354;28;20022;-71
2022/05/25 11:46:50;;;;;;;43.33;30.35;;;;;;;23.29;57.44;99564.09;5018561;28;20480;-72
2022/05/25 11:49:46;;;;;;;45.03;30.65;;;;;;;23.41;57.87;99562.75;5013644;28;20118;-72
2022/05/25 11:52:18;;;;;;;50.95;32.80;;;;;;;23.31;57.57;99567.31;5011278;28;20056;-73
2022/05/25 11:55:01;;;;;;;49.83;32.20;;;;;;;23.33;57.08;99561.19;5012909;28;20049;-72
2022/05/25 11:57:35;;;;;;;51.00;31.38;;;;;;;23.55;56.15;99564.66;5012555;28;20586;-72
2022/05/25 12:00:34;;;;;;;44.45;31.58;;;;;;;23.48;56.91;99542.72;5006976;28;20033;-72
2022/05/25 12:03:25;;;;;;;44.75;33.58;;;;;;;23.38;56.70;99538.72;5003250;28;20038;-73